PWSweather.com
Personal Weather Stations
Station Observations
COONRAPIDS
Minneapolis, MN 55433

Minneapolis, MN 55433

Lat: 45.187721, Lon: -93.36828

Elevation: 898

Station Type: Davis Vantage Pro 2

Latest ConditionsUpdated 4:40:01 AM CDT Tuesday, Aug 4, 2015
Currently Today's Max Today's Min Today's Average
Temperature 55.1°F12.8°C 64.4°F18.0°C 55.1°F12.8°C 59.6°F15.3°C
Dew Point 50.7°F10.4°C 52.4°F11.3°C 50.6°F10.3°C 51.7°F10.9°C
Winds Calm Calm 0.3 mph WNW0.5 kmh WNW - 0.0 mph 0.0 kmh
Wind Gusts -- 1.0 mph1.6 kmh - -
Humidity 85% 85% 64% 75%
Pressure 29.90 in1012.5 mb 29.91 in1012.9 mb 29.90 in1012.5 mb -
Hour Temp Dew Point Humidity Winds Wind Gusts Pressure Precip Precip Rate Daily Precip Total
04:40 AM 55.1°F12.8°C 50.7°F10.4°C 85% Calm Calm -- 29.90 in1012.5 mb - 0.00 in0.0 mm 0.00 in0.0 mm
04:30 AM 55.4°F13.0°C 50.6°F10.3°C 84% Calm Calm -- 29.90 in1012.5 mb - 0.00 in0.0 mm 0.00 in0.0 mm
04:20 AM 55.7°F13.2°C 50.9°F10.5°C 84% Calm Calm -- 29.91 in1012.9 mb - 0.00 in0.0 mm 0.00 in0.0 mm
04:10 AM 56.1°F13.4°C 51.3°F10.7°C 84% Calm Calm -- 29.91 in1012.9 mb - 0.00 in0.0 mm 0.00 in0.0 mm
04:00 AM 56.4°F13.6°C 51.3°F10.7°C 83% Calm Calm -- 29.91 in1012.9 mb - 0.00 in0.0 mm 0.00 in0.0 mm
03:50 AM 56.7°F13.7°C 51.6°F10.9°C 83% Calm Calm -- 29.91 in1012.9 mb - 0.00 in0.0 mm 0.00 in0.0 mm
03:40 AM 57.0°F13.9°C 51.6°F10.9°C 82% Calm Calm -- 29.91 in1012.9 mb - 0.00 in0.0 mm 0.00 in0.0 mm
03:30 AM 57.4°F14.1°C 51.3°F10.7°C 80% Calm Calm -- 29.91 in1012.9 mb - 0.00 in0.0 mm 0.00 in0.0 mm
03:20 AM 57.9°F14.4°C 51.8°F11.0°C 80% Calm Calm -- 29.91 in1012.9 mb - 0.00 in0.0 mm 0.00 in0.0 mm
03:10 AM 58.3°F14.6°C 51.8°F11.0°C 79% Calm Calm -- 29.91 in1012.9 mb - 0.00 in0.0 mm 0.00 in0.0 mm
03:00 AM 58.6°F14.8°C 52.1°F11.2°C 79% Calm Calm -- 29.91 in1012.9 mb - 0.00 in0.0 mm 0.00 in0.0 mm
02:50 AM 58.8°F14.9°C 52.3°F11.3°C 79% Calm Calm -- 29.91 in1012.9 mb - 0.00 in0.0 mm 0.00 in0.0 mm
02:40 AM 58.9°F14.9°C 52.4°F11.3°C 79% 0.1 mph WNW0.2 kmh WNW -- 29.91 in1012.9 mb - 0.00 in0.0 mm 0.00 in0.0 mm
02:30 AM 58.9°F14.9°C 52.4°F11.3°C 79% 0.3 mph WNW0.5 kmh WNW -- 29.91 in1012.9 mb - 0.00 in0.0 mm 0.00 in0.0 mm
02:20 AM 59.0°F15.0°C 52.1°F11.2°C 78% Calm Calm -- 29.91 in1012.9 mb - 0.00 in0.0 mm 0.00 in0.0 mm
02:10 AM 59.1°F15.1°C 51.9°F11.1°C 77% 0.1 mph WNW0.2 kmh WNW 1.0 mph1.6 kmh 29.91 in1012.9 mb - 0.00 in0.0 mm 0.00 in0.0 mm
02:00 AM 59.4°F15.2°C 51.9°F11.1°C 76% Calm Calm -- 29.91 in1012.9 mb - 0.00 in0.0 mm 0.00 in0.0 mm
01:50 AM 60.0°F15.6°C 51.7°F10.9°C 74% Calm Calm -- 29.90 in1012.5 mb - 0.00 in0.0 mm 0.00 in0.0 mm
01:40 AM 60.5°F15.8°C 51.8°F11.0°C 73% Calm Calm -- 29.90 in1012.5 mb - 0.00 in0.0 mm 0.00 in0.0 mm
01:30 AM 61.1°F16.2°C 51.6°F10.9°C 71% Calm Calm -- 29.90 in1012.5 mb - 0.00 in0.0 mm 0.00 in0.0 mm
01:20 AM 61.7°F16.5°C 51.8°F11.0°C 70% Calm Calm -- 29.90 in1012.5 mb - 0.00 in0.0 mm 0.00 in0.0 mm
01:10 AM 62.3°F16.8°C 51.6°F10.9°C 68% Calm Calm -- 29.90 in1012.5 mb - 0.00 in0.0 mm 0.00 in0.0 mm
01:00 AM 62.8°F17.1°C 51.7°F10.9°C 67% Calm Calm -- 29.91 in1012.9 mb - 0.00 in0.0 mm 0.00 in0.0 mm
12:50 AM 63.2°F17.3°C 51.7°F10.9°C 66% Calm Calm -- 29.91 in1012.9 mb - 0.00 in0.0 mm 0.00 in0.0 mm
12:40 AM 63.6°F17.6°C 51.6°F10.9°C 65% Calm Calm -- 29.90 in1012.5 mb - 0.00 in0.0 mm 0.00 in0.0 mm
12:30 AM 63.7°F17.6°C 51.7°F10.9°C 65% Calm Calm -- 29.90 in1012.5 mb - 0.00 in0.0 mm 0.00 in0.0 mm
12:20 AM 63.7°F17.6°C 51.7°F10.9°C 65% Calm Calm -- 29.90 in1012.5 mb - 0.00 in0.0 mm 0.00 in0.0 mm
12:10 AM 64.1°F17.8°C 52.1°F11.2°C 65% Calm Calm -- 29.90 in1012.5 mb - 0.00 in0.0 mm 0.00 in0.0 mm
12:00 AM 64.4°F18.0°C 52.0°F11.1°C 64% Calm Calm -- 29.90 in1012.5 mb - 0.00 in0.0 mm 0.00 in0.0 mm